createdAt,value
2017-09-17T06:02:38.272Z,98.2
2017-09-17T06:03:39.882Z,97.9
2017-09-17T06:05:31.595Z,98.4
2017-09-17T06:06:33.204Z,98.2
2017-09-17T06:08:24.887Z,97.4
2017-09-17T06:09:26.503Z,98.2
2017-09-17T06:11:18.197Z,98.0
2017-09-17T06:12:19.807Z,98.1
2017-09-17T06:14:12.342Z,97.7
2017-09-17T06:15:13.953Z,96.9
2017-09-17T06:17:05.656Z,96.1
2017-09-17T06:18:07.267Z,96.1
2017-09-17T06:19:58.951Z,95.4
2017-09-17T06:21:00.565Z,95.0
2017-09-17T06:22:52.266Z,94.5
2017-09-17T06:23:53.892Z,94.6
2017-09-17T06:25:45.565Z,93.8
2017-09-17T06:26:47.183Z,93.9
2017-09-17T06:28:38.891Z,93.0
2017-09-17T06:29:40.502Z,92.9
2017-09-17T06:31:32.190Z,91.1
2017-09-17T06:32:33.804Z,89.1
2017-09-17T06:34:25.518Z,81.8
2017-09-17T06:35:27.131Z,78.7
2017-09-17T06:37:18.814Z,75.0
2017-09-17T06:38:20.428Z,75.1
2017-09-17T06:40:12.135Z,75.1
2017-09-17T06:41:13.751Z,74.7
2017-09-17T06:43:05.441Z,69.8
2017-09-17T06:44:07.057Z,69.0
2017-09-17T06:46:22.390Z,69.7
2017-09-17T06:47:24.005Z,69.6
2017-09-17T06:49:16.549Z,65.3
2017-09-17T06:50:18.167Z,66.0
2017-09-17T06:52:13.672Z,67.1
2017-09-17T06:53:15.386Z,68.3
2017-09-17T06:55:07.089Z,69.8
2017-09-17T06:56:08.707Z,70.8
2017-09-17T06:58:00.425Z,72.7
2017-09-17T06:59:02.043Z,73.4
2017-09-17T07:00:53.737Z,75.0
2017-09-17T07:01:55.353Z,74.3
2017-09-17T07:03:47.291Z,75.5
2017-09-17T07:04:48.906Z,75.4
2017-09-17T07:06:40.614Z,77.9
2017-09-17T07:07:42.230Z,77.7
2017-09-17T07:09:33.973Z,77.2
2017-09-17T16:59:04.349Z,64.8
2017-09-17T17:00:05.956Z,64.2
2017-09-17T17:01:57.646Z,64.0
2017-09-17T17:02:59.262Z,64.1
2017-09-17T17:04:50.971Z,65.2
2017-09-17T17:05:52.586Z,65.0
2017-09-17T17:07:44.277Z,65.1
2017-09-17T17:08:45.895Z,65.5
2017-09-17T17:10:37.601Z,65.3
2017-09-17T17:11:39.214Z,66.3
2017-09-17T17:13:30.945Z,67.0
2017-09-17T17:14:32.557Z,67.1
2017-09-17T17:16:24.251Z,67.1
2017-09-17T17:17:25.866Z,66.9
2017-09-17T17:19:17.632Z,67.0
2017-09-17T17:20:19.247Z,66.9
2017-09-17T17:21:20.860Z,67.1
2017-09-17T17:22:22.625Z,66.9
2017-09-17T17:23:24.484Z,66.9
2017-09-17T17:24:26.427Z,66.8
2017-09-17T17:25:28.350Z,67.5
2017-09-17T17:26:30.239Z,67.4
2017-09-17T17:27:32.137Z,68.1
2017-09-17T17:28:34.015Z,68.1
2017-09-17T17:29:35.890Z,67.9
2017-09-17T17:30:37.757Z,68.4
2017-09-17T17:31:39.634Z,69.3
2017-09-17T17:32:41.528Z,69.7
2017-09-17T17:33:43.362Z,69.4
2017-09-17T17:34:45.311Z,69.6
2017-09-17T17:35:47.187Z,70.4
2017-09-17T17:36:49.029Z,70.1
2017-09-17T17:37:50.911Z,70.7
2017-09-17T17:38:52.774Z,70.5
2017-09-17T17:39:54.623Z,70.6
2017-09-17T17:40:56.450Z,71.2
2017-09-17T17:41:58.267Z,71.8
2017-09-17T17:43:00.114Z,72.3
2017-09-17T17:44:01.998Z,72.4
2017-09-17T17:45:03.853Z,73.3
2017-09-17T17:46:05.693Z,73.2
2017-09-17T17:47:07.546Z,73.8
2017-09-17T17:48:09.412Z,74.1
2017-09-17T17:49:11.256Z,74.5
2017-09-17T17:50:13.171Z,74.0
2017-09-17T17:51:14.889Z,74.2
2017-09-17T17:52:16.765Z,74.2
2017-09-17T17:53:18.649Z,73.7
2017-09-17T17:54:20.344Z,74.1
2017-09-17T17:55:22.208Z,74.4
2017-09-17T17:56:23.864Z,74.0
2017-09-17T17:57:25.845Z,74.2
2017-09-17T17:58:27.752Z,74.2
2017-09-17T17:59:29.534Z,74.2
2017-09-17T18:00:31.357Z,73.9
2017-09-17T18:01:33.199Z,74.1
2017-09-17T18:02:35.067Z,73.8
2017-09-17T18:03:36.896Z,74.6
2017-09-17T18:04:38.752Z,76.3
2017-09-17T18:05:40.583Z,78.0
2017-09-17T18:06:42.396Z,79.2
2017-09-17T18:07:44.295Z,79.3
2017-09-17T18:08:46.146Z,81.1
2017-09-17T18:09:48.062Z,80.2
2017-09-17T18:10:49.956Z,80.8
2017-09-17T18:11:51.751Z,83.6
2017-09-17T18:12:53.520Z,86.5
2017-09-17T18:13:55.326Z,85.3
2017-09-17T18:14:57.045Z,85.9
2017-09-17T18:15:58.903Z,87.6
2017-09-17T18:17:00.740Z,89.9
2017-09-17T18:18:02.541Z,90.5
2017-09-17T18:19:04.307Z,91.2
2017-09-17T18:20:06.178Z,91.0
2017-09-17T18:21:08.013Z,92.1
2017-09-17T18:22:09.895Z,94.1
2017-09-17T18:23:11.733Z,94.6
2017-09-17T18:24:13.577Z,95.5
2017-09-17T18:25:15.432Z,96.6
2017-09-17T18:26:17.304Z,97.1
2017-09-17T18:27:19.084Z,97.1
2017-09-17T18:28:20.940Z,97.3
2017-09-17T18:29:22.824Z,97.6
2017-09-17T18:30:24.653Z,97.1
2017-09-17T18:31:26.482Z,97.7
2017-09-17T18:32:28.329Z,97.3
2017-09-17T18:33:30.221Z,98.0
2017-09-17T18:34:32.104Z,98.3
2017-09-17T18:35:34.045Z,98.4
2017-09-17T18:36:35.899Z,98.6
2017-09-17T18:37:37.782Z,98.8
2017-09-17T18:38:39.628Z,99.5
2017-09-17T18:39:41.514Z,98.5
2017-09-17T18:40:43.361Z,98.5
2017-09-17T18:41:45.065Z,99.5
2017-09-17T18:42:46.882Z,99.2
2017-09-17T18:43:48.617Z,99.6
2017-09-17T18:44:50.392Z,99.0
2017-09-17T18:45:52.114Z,99.6
2017-09-17T18:46:53.936Z,99.1
2017-09-17T18:47:55.716Z,99.9
2017-09-17T18:48:57.546Z,98.1
2017-09-17T18:49:59.421Z,98.3
2017-09-17T18:51:01.082Z,98.3
2017-09-17T18:52:02.976Z,98.1
2017-09-17T18:53:04.853Z,97.9
2017-09-17T18:54:06.761Z,98.5
2017-09-17T18:55:08.612Z,99.0
2017-09-17T18:56:10.426Z,100.0
2017-09-17T18:57:12.292Z,100.0
2017-09-17T18:58:14.157Z,100.0
2017-09-17T18:59:15.928Z,100.0
2017-09-17T19:00:17.827Z,100.0
2017-09-17T19:01:19.682Z,100.0
2017-09-17T19:02:21.597Z,100.0
2017-09-17T19:03:23.414Z,100.0
2017-09-17T19:04:25.249Z,100.0
2017-09-17T19:05:27.092Z,100.0
2017-09-17T19:06:28.992Z,100.0
2017-09-17T19:07:30.842Z,100.0
2017-09-17T19:08:32.725Z,100.0
2017-09-17T19:09:34.571Z,100.0
2017-09-17T19:10:36.456Z,100.0
2017-09-17T19:11:38.331Z,100.0
2017-09-17T19:12:40.135Z,100.0
2017-09-17T19:13:42.009Z,100.0
2017-09-17T19:14:43.922Z,100.0
2017-09-17T19:15:45.733Z,100.0
2017-09-17T19:16:47.615Z,100.0
2017-09-17T19:17:49.494Z,100.0
2017-09-17T19:18:51.105Z,100.0
2017-09-17T19:19:52.718Z,100.0
2017-09-17T19:20:54.328Z,100.0
2017-09-17T19:21:55.941Z,100.0
2017-09-17T19:22:57.555Z,100.0
2017-09-17T19:23:59.163Z,100.0
2017-09-17T19:25:00.819Z,100.0
2017-09-17T19:26:02.431Z,100.0
2017-09-17T19:27:04.041Z,100.0
2017-09-17T19:28:05.656Z,100.0
2017-09-17T19:29:07.267Z,100.0
2017-09-17T19:30:08.877Z,100.0
2017-09-17T19:31:10.493Z,100.0
2017-09-17T19:32:12.105Z,100.0
2017-09-17T19:33:13.713Z,100.0
2017-09-17T19:34:15.326Z,100.0
2017-09-17T19:35:16.938Z,100.0
2017-09-17T19:36:18.551Z,100.0
2017-09-17T19:37:20.159Z,100.0
2017-09-17T19:38:21.767Z,100.0
2017-09-17T19:39:23.377Z,100.0
2017-09-17T19:40:25.001Z,100.0
2017-09-17T19:41:26.609Z,100.0
2017-09-17T19:42:28.216Z,100.0
2017-09-17T19:43:29.831Z,100.0
2017-09-17T19:44:31.445Z,100.0
2017-09-17T19:45:33.054Z,100.0
2017-09-17T19:46:34.666Z,100.0
2017-09-17T19:47:36.283Z,100.0
2017-09-17T19:48:37.895Z,100.0
2017-09-17T19:49:39.505Z,100.0
2017-09-17T19:50:41.120Z,100.0
2017-09-17T19:51:42.728Z,100.0
2017-09-17T19:52:44.340Z,100.0
2017-09-17T19:53:45.946Z,100.0
2017-09-17T19:54:47.556Z,100.0
2017-09-17T19:55:49.168Z,100.0
2017-09-17T19:56:50.779Z,100.0
2017-09-17T19:57:52.389Z,100.0
2017-09-17T19:58:53.997Z,100.0
2017-09-17T19:59:55.604Z,100.0
2017-09-17T20:00:57.215Z,100.0
2017-09-17T20:01:58.821Z,100.0
2017-09-17T20:03:00.432Z,100.0
2017-09-17T20:04:02.048Z,100.0
2017-09-17T20:05:03.660Z,100.0
2017-09-17T20:06:05.268Z,100.0
2017-09-17T20:07:06.878Z,100.0
2017-09-17T20:08:08.499Z,100.0
2017-09-17T20:09:10.106Z,100.0
2017-09-17T20:10:11.731Z,100.0
2017-09-17T20:11:13.344Z,100.0
2017-09-17T20:12:14.954Z,100.0
2017-09-17T20:13:16.568Z,100.0
2017-09-17T20:14:18.174Z,100.0
2017-09-17T20:15:19.787Z,100.0
2017-09-17T20:16:21.394Z,100.0
2017-09-17T20:17:23.006Z,100.0
2017-09-17T20:18:24.616Z,100.0
2017-09-17T20:19:26.228Z,100.0
2017-09-17T20:20:27.836Z,100.0
2017-09-17T20:21:29.445Z,100.0
2017-09-17T20:22:31.054Z,100.0
2017-09-17T20:23:32.664Z,100.0
2017-09-17T20:24:34.275Z,100.0
2017-09-17T20:25:35.886Z,100.0
2017-09-17T20:26:37.498Z,100.0
2017-09-17T20:27:39.105Z,100.0
2017-09-17T20:28:40.716Z,100.0
2017-09-17T20:29:42.324Z,100.0
2017-09-17T20:30:43.933Z,100.0
2017-09-17T20:31:45.542Z,100.0
2017-09-17T20:32:47.152Z,100.0
2017-09-17T20:33:48.762Z,100.0
2017-09-17T20:34:50.371Z,100.0
2017-09-17T20:35:51.982Z,100.0
2017-09-17T20:36:53.589Z,100.0
2017-09-17T20:37:55.199Z,100.0
2017-09-17T20:38:56.807Z,100.0
2017-09-17T20:39:58.417Z,100.0
2017-09-17T20:41:00.030Z,100.0
2017-09-17T20:42:01.636Z,100.0
2017-09-17T20:43:03.244Z,100.0
2017-09-17T20:44:04.854Z,100.0
2017-09-17T20:45:06.463Z,100.0
2017-09-17T20:46:08.075Z,100.0
2017-09-17T20:47:09.685Z,100.0
2017-09-17T20:48:11.299Z,100.0
2017-09-17T20:49:12.902Z,100.0
2017-09-17T20:50:14.511Z,100.0
2017-09-17T20:51:16.121Z,100.0
2017-09-17T20:52:17.764Z,100.0
2017-09-17T20:53:19.344Z,100.0
2017-09-17T20:54:20.953Z,100.0
2017-09-17T20:55:22.564Z,100.0
2017-09-17T20:56:24.173Z,100.0
2017-09-17T20:57:25.781Z,100.0
2017-09-17T20:58:27.389Z,100.0
2017-09-17T20:59:28.998Z,100.0
2017-09-17T21:00:30.607Z,100.0
2017-09-17T21:01:32.217Z,100.0
2017-09-17T21:02:33.834Z,100.0
2017-09-17T21:03:35.439Z,100.0
2017-09-17T21:04:37.043Z,100.0
2017-09-17T21:05:38.651Z,100.0
2017-09-17T21:06:40.262Z,100.0
2017-09-17T21:07:41.870Z,100.0
2017-09-17T21:08:43.481Z,100.0
2017-09-17T21:09:45.091Z,100.0
2017-09-17T21:10:46.699Z,100.0
2017-09-17T21:11:48.306Z,100.0
2017-09-17T21:12:49.916Z,100.0
2017-09-17T21:13:51.524Z,100.0
2017-09-17T21:14:53.135Z,100.0
2017-09-17T21:15:54.745Z,100.0
2017-09-17T21:16:56.357Z,100.0
2017-09-17T21:17:57.964Z,100.0
2017-09-17T21:18:59.573Z,100.0
2017-09-17T21:20:01.181Z,100.0
2017-09-17T21:21:02.800Z,100.0
2017-09-17T21:22:04.410Z,100.0
2017-09-17T21:23:06.022Z,100.0
2017-09-17T21:24:07.635Z,100.0
2017-09-17T21:25:09.248Z,100.0
2017-09-17T21:26:10.854Z,100.0
2017-09-17T21:27:12.461Z,100.0
2017-09-17T21:28:14.071Z,100.0
2017-09-17T21:29:15.683Z,100.0
2017-09-17T21:30:17.293Z,100.0
2017-09-17T21:31:18.909Z,100.0
2017-09-17T21:32:20.513Z,100.0
2017-09-17T21:33:22.120Z,100.0
2017-09-17T21:34:23.730Z,100.0
2017-09-17T21:35:25.339Z,100.0
2017-09-17T21:36:26.948Z,100.0
2017-09-17T21:37:28.585Z,100.0
2017-09-17T21:38:30.169Z,100.0
2017-09-17T21:39:31.779Z,100.0
2017-09-17T21:40:33.388Z,100.0
2017-09-17T21:41:35.001Z,100.0
2017-09-17T21:42:36.605Z,100.0
2017-09-17T21:43:38.213Z,100.0
2017-09-17T21:44:39.824Z,100.0
2017-09-17T21:45:41.437Z,100.0
2017-09-17T21:46:43.040Z,100.0
2017-09-17T21:47:44.647Z,100.0
2017-09-17T21:48:46.256Z,100.0
2017-09-17T21:49:47.874Z,100.0
2017-09-17T21:50:49.476Z,100.0
2017-09-17T21:51:51.084Z,100.0
2017-09-17T21:52:52.692Z,100.0
2017-09-17T21:53:54.299Z,100.0
2017-09-17T21:54:55.941Z,100.0
2017-09-17T21:55:57.517Z,100.0
2017-09-17T21:56:59.130Z,100.0
2017-09-17T21:58:00.738Z,100.0
2017-09-17T21:59:02.349Z,100.0
2017-09-17T22:00:03.960Z,100.0
2017-09-17T22:01:05.568Z,100.0
2017-09-17T22:02:07.173Z,100.0
2017-09-17T22:03:08.781Z,100.0
2017-09-17T22:04:10.390Z,100.0
2017-09-17T22:05:11.997Z,100.0
2017-09-17T22:06:13.605Z,100.0
2017-09-17T22:07:15.214Z,100.0
2017-09-17T22:08:16.823Z,100.0
2017-09-17T22:09:18.430Z,100.0
2017-09-17T22:10:20.037Z,100.0
2017-09-17T22:11:21.649Z,100.0
2017-09-17T22:12:23.257Z,100.0
2017-09-17T22:13:24.866Z,100.0
2017-09-17T22:14:26.474Z,100.0
2017-09-17T22:15:28.082Z,100.0
2017-09-17T22:16:29.689Z,100.0
2017-09-17T22:17:31.300Z,100.0
2017-09-17T22:18:32.904Z,100.0
2017-09-17T22:19:34.512Z,100.0
2017-09-17T22:20:36.122Z,100.0
2017-09-17T22:21:37.736Z,100.0
2017-09-17T22:22:39.338Z,100.0
2017-09-17T22:23:40.947Z,100.0
2017-09-17T22:24:42.558Z,100.0
2017-09-17T22:25:44.166Z,100.0
2017-09-17T22:26:45.775Z,100.0
2017-09-17T22:27:47.385Z,100.0
2017-09-17T22:28:48.994Z,100.0
2017-09-17T22:29:50.601Z,100.0
2017-09-17T22:30:52.207Z,100.0
2017-09-17T22:31:53.818Z,100.0
2017-09-17T22:32:55.425Z,100.0
2017-09-17T22:33:57.035Z,100.0
2017-09-17T22:34:58.642Z,100.0
2017-09-17T22:36:00.255Z,100.0
2017-09-17T22:37:01.866Z,100.0
2017-09-17T22:38:03.474Z,100.0
2017-09-17T22:39:05.079Z,100.0
2017-09-17T22:40:06.691Z,100.0
2017-09-17T22:41:08.298Z,100.0
2017-09-17T22:42:09.905Z,100.0
2017-09-17T22:43:11.515Z,100.0
2017-09-17T22:44:13.124Z,100.0
2017-09-17T22:45:14.730Z,100.0
2017-09-17T22:46:16.339Z,100.0
2017-09-17T22:47:17.945Z,100.0
2017-09-17T22:48:19.556Z,100.0
2017-09-17T22:49:21.164Z,100.0
2017-09-17T22:50:22.774Z,100.0
2017-09-17T22:51:24.380Z,100.0
2017-09-17T22:52:25.988Z,100.0
2017-09-17T22:53:27.596Z,100.0
2017-09-17T22:54:29.204Z,100.0
2017-09-17T22:55:30.813Z,100.0
2017-09-17T22:56:32.423Z,100.0
2017-09-17T22:57:34.033Z,100.0
2017-09-17T22:58:35.643Z,100.0
2017-09-17T22:59:37.251Z,100.0
2017-09-17T23:00:38.856Z,100.0
2017-09-17T23:01:40.463Z,100.0
2017-09-17T23:02:42.072Z,100.0
2017-09-17T23:03:43.685Z,100.0
2017-09-17T23:04:45.292Z,100.0
2017-09-17T23:05:46.896Z,100.0
2017-09-17T23:06:48.504Z,100.0
2017-09-17T23:07:50.113Z,100.0
2017-09-17T23:08:51.724Z,100.0
2017-09-17T23:09:53.334Z,100.0
2017-09-17T23:10:54.940Z,100.0
2017-09-17T23:11:56.552Z,100.0
2017-09-17T23:12:58.158Z,100.0
2017-09-17T23:13:59.766Z,100.0
2017-09-17T23:15:01.375Z,100.0
2017-09-17T23:16:02.982Z,100.0
2017-09-17T23:17:05.334Z,100.0
2017-09-17T23:18:10.422Z,100.0
2017-09-17T23:19:12.179Z,100.0
2017-09-17T23:20:14.165Z,100.0
2017-09-17T23:21:16.294Z,100.0
2017-09-17T23:22:18.624Z,100.0
2017-09-17T23:23:20.683Z,100.0
2017-09-17T23:24:22.379Z,100.0
2017-09-17T23:25:24.354Z,100.0
2017-09-17T23:26:25.945Z,100.0
2017-09-17T23:27:27.739Z,100.0
2017-09-17T23:28:29.361Z,100.0
2017-09-17T23:29:33.079Z,100.0
2017-09-17T23:30:34.906Z,100.0
2017-09-17T23:31:39.877Z,100.0
2017-09-17T23:32:42.590Z,100.0
2017-09-17T23:33:44.409Z,100.0
2017-09-17T23:34:46.216Z,100.0
2017-09-17T23:35:48.027Z,100.0
2017-09-17T23:36:49.998Z,100.0
2017-09-17T23:37:51.812Z,100.0
2017-09-17T23:38:53.630Z,100.0
2017-09-17T23:39:55.436Z,100.0
2017-09-17T23:40:57.278Z,100.0
2017-09-17T23:41:58.998Z,100.0
2017-09-17T23:43:00.819Z,100.0
2017-09-17T23:44:03.223Z,100.0
2017-09-17T23:45:06.197Z,100.0
2017-09-17T23:46:09.507Z,100.0
2017-09-17T23:47:11.284Z,100.0
2017-09-17T23:48:13.000Z,100.0
2017-09-17T23:49:14.822Z,100.0
2017-09-17T23:50:16.639Z,100.0
2017-09-17T23:51:18.517Z,100.0
2017-09-17T23:52:21.241Z,100.0
2017-09-17T23:53:23.055Z,100.0
2017-09-17T23:54:24.919Z,100.0
2017-09-17T23:55:26.732Z,100.0
2017-09-17T23:56:28.508Z,100.0
2017-09-17T23:57:30.329Z,100.0
2017-09-17T23:58:31.938Z,100.0
2017-09-17T23:59:33.776Z,100.0
